createdAt,value
2018-08-10T00:00:19.256Z,22.72
2018-08-10T00:01:19.542Z,22.61
2018-08-10T00:02:19.316Z,22.55
2018-08-10T00:03:19.591Z,22.61
2018-08-10T00:04:34.281Z,22.58
2018-08-10T00:05:19.648Z,22.62
2018-08-10T00:06:19.673Z,22.64
2018-08-10T00:07:19.707Z,22.68
2018-08-10T00:08:19.732Z,22.75
2018-08-10T00:09:19.749Z,22.61
2018-08-10T00:10:19.777Z,22.58
2018-08-10T00:11:19.814Z,22.47
2018-08-10T00:12:19.825Z,22.52
2018-08-10T00:13:19.854Z,22.47
2018-08-10T00:15:19.904Z,22.42
2018-08-10T00:16:19.419Z,22.39
2018-08-10T00:17:34.620Z,22.4
2018-08-10T00:18:19.979Z,22.47
2018-08-10T00:19:20.010Z,22.45
2018-08-10T00:20:20.041Z,22.42
2018-08-10T00:21:19.801Z,22.4
2018-08-10T00:22:20.086Z,22.4
2018-08-10T00:23:20.120Z,22.39
2018-08-10T00:24:20.136Z,22.37
2018-08-10T00:25:20.160Z,22.45
2018-08-10T00:26:34.849Z,22.4
2018-08-10T00:27:19.960Z,22.39
2018-08-10T00:28:20.239Z,22.33
2018-08-10T00:29:19.749Z,22.35
2018-08-10T00:30:20.290Z,22.39
2018-08-10T00:31:20.319Z,22.36
2018-08-10T00:32:20.339Z,22.25
2018-08-10T00:33:20.367Z,22.22
2018-08-10T00:34:20.137Z,22.25
2018-08-10T00:35:20.423Z,22.27
2018-08-10T00:36:20.188Z,22.27
2018-08-10T00:37:20.469Z,22.15
2018-08-10T00:38:20.498Z,22.17
2018-08-10T00:39:20.267Z,22.24
2018-08-10T00:40:20.550Z,22.27
2018-08-10T00:41:20.580Z,22.22
2018-08-10T00:42:35.261Z,22.18
2018-08-10T00:43:20.630Z,22.07
2018-08-10T00:44:20.651Z,22.25
2018-08-10T00:45:20.419Z,22.14
2018-08-10T00:46:20.705Z,22.22
2018-08-10T00:47:20.471Z,22.17
2018-08-10T00:48:20.754Z,22.12
2018-08-10T00:49:20.781Z,22.14
2018-08-10T00:50:20.808Z,22.18
2018-08-10T00:51:20.579Z,22.14
2018-08-10T00:52:20.862Z,22.15
2018-08-10T00:53:35.551Z,22.14
2018-08-10T00:54:20.915Z,22.12
2018-08-10T00:55:20.982Z,22.12
2018-08-10T00:56:20.704Z,22.17
2018-08-10T00:57:20.731Z,22.09
2018-08-10T00:58:35.674Z,22.12
2018-08-10T00:59:21.038Z,22.09
2018-08-10T01:00:21.065Z,22
2018-08-10T01:01:21.092Z,22.06
2018-08-10T01:02:21.112Z,22.17
2018-08-10T01:03:20.983Z,22
2018-08-10T01:04:21.165Z,22.15
2018-08-10T01:05:21.195Z,22.09
2018-08-10T01:06:21.216Z,22.02
2018-08-10T01:07:20.985Z,22.02
2018-08-10T01:08:21.270Z,21.98
2018-08-10T01:09:21.293Z,21.99
2018-08-10T01:10:21.324Z,22.02
2018-08-10T01:11:21.346Z,21.98
2018-08-10T01:12:21.372Z,21.98
2018-08-10T01:13:21.811Z,21.86
2018-08-10T01:14:35.828Z,21.84
2018-08-10T01:17:20.985Z,21.96
2018-08-10T01:18:21.270Z,21.84
2018-08-10T01:19:21.824Z,21.8
2018-08-10T01:20:21.576Z,21.77
2018-08-10T01:21:36.265Z,21.84
2018-08-10T01:22:21.630Z,21.91
2018-08-10T01:23:21.650Z,21.83
2018-08-10T01:24:21.425Z,21.8
2018-08-10T01:25:21.703Z,21.82
2018-08-10T01:26:21.732Z,21.69
2018-08-10T01:27:21.756Z,21.68
2018-08-10T01:28:22.001Z,21.68
2018-08-10T01:29:36.470Z,21.65
2018-08-10T01:30:21.575Z,21.67
2018-08-10T01:31:21.863Z,21.68
2018-08-10T01:32:21.890Z,21.69
2018-08-10T01:33:21.907Z,21.72
2018-08-10T01:34:21.681Z,21.62
2018-08-10T01:35:21.706Z,21.62
2018-08-10T01:36:21.985Z,21.61
2018-08-10T01:37:22.020Z,21.53
2018-08-10T01:38:36.701Z,21.61
2018-08-10T01:39:21.801Z,21.69
2018-08-10T01:40:22.088Z,21.61
2018-08-10T01:41:21.599Z,21.56
2018-08-10T01:42:21.886Z,21.58
2018-08-10T01:43:21.905Z,21.53
2018-08-10T01:44:21.932Z,21.62
2018-08-10T01:45:22.215Z,21.61
2018-08-10T01:47:22.271Z,21.56
2018-08-10T01:48:22.290Z,21.54
2018-08-10T01:49:22.316Z,21.59
2018-08-10T01:50:22.345Z,21.53
2018-08-10T01:51:22.111Z,21.58
2018-08-10T01:52:22.395Z,21.46
2018-08-10T01:53:22.419Z,21.46
2018-08-10T01:54:22.449Z,21.56
2018-08-10T01:55:37.131Z,21.5
2018-08-10T01:56:22.496Z,21.47
2018-08-10T01:57:22.265Z,21.49
2018-08-10T01:58:22.543Z,21.42
2018-08-10T01:59:22.572Z,21.49
2018-08-10T02:00:22.612Z,21.47
2018-08-10T02:01:37.284Z,21.38
2018-08-10T02:02:22.646Z,21.35
2018-08-10T02:03:22.415Z,21.49
2018-08-10T02:04:22.704Z,21.47
2018-08-10T02:05:22.723Z,21.37
2018-08-10T02:06:22.749Z,21.38
2018-08-10T02:07:22.517Z,21.32
2018-08-10T02:08:22.804Z,21.38
2018-08-10T02:09:22.823Z,21.44
2018-08-10T02:10:22.853Z,21.35
2018-08-10T02:11:22.616Z,21.37
2018-08-10T02:12:22.900Z,21.43
2018-08-10T02:13:22.924Z,21.37
2018-08-10T02:14:22.961Z,21.38
2018-08-10T02:15:22.976Z,21.37
2018-08-10T02:16:22.745Z,21.35
2018-08-10T02:17:37.690Z,21.42
2018-08-10T02:18:22.538Z,21.31
2018-08-10T02:19:23.083Z,21.35
2018-08-10T02:20:23.103Z,21.31
2018-08-10T02:21:23.128Z,21.37
2018-08-10T02:22:23.255Z,21.35
2018-08-10T02:23:23.184Z,21.38
2018-08-10T02:24:23.210Z,21.37
2018-08-10T02:25:23.231Z,21.34
2018-08-10T02:26:23.258Z,21.35
2018-08-10T02:27:37.943Z,21.31
2018-08-10T02:28:23.310Z,21.37
2018-08-10T02:29:22.818Z,21.28
2018-08-10T02:30:23.368Z,21.31
2018-08-10T02:31:23.455Z,21.32
2018-08-10T02:32:23.405Z,21.19
2018-08-10T02:34:23.459Z,21.32
2018-08-10T02:35:23.524Z,21.32
2018-08-10T02:37:23.532Z,21.24
2018-08-10T02:38:23.571Z,21.32
2018-08-10T02:39:23.586Z,21.21
2018-08-10T02:40:23.619Z,21.24
2018-08-10T02:41:38.296Z,21.19
2018-08-10T02:42:23.667Z,21.32
2018-08-10T02:43:23.428Z,21.28
2018-08-10T02:44:23.723Z,21.29
2018-08-10T02:45:23.737Z,21.32
2018-08-10T02:46:23.245Z,21.22
2018-08-10T02:47:23.793Z,21.32
2018-08-10T02:48:23.821Z,21.38
2018-08-10T02:49:38.498Z,21.37
2018-08-10T02:50:23.871Z,21.32
2018-08-10T02:51:23.633Z,21.42
2018-08-10T02:52:23.655Z,21.32
2018-08-10T02:53:23.682Z,21.34
2018-08-10T02:54:23.967Z,21.4
2018-08-10T02:56:24.017Z,21.42
2018-08-10T02:57:24.042Z,21.43
2018-08-10T02:58:24.064Z,21.37
2018-08-10T02:59:38.749Z,21.35
2018-08-10T03:00:23.858Z,21.42
2018-08-10T03:01:24.135Z,21.38
2018-08-10T03:02:24.165Z,21.43
2018-08-10T03:03:23.932Z,21.38
2018-08-10T03:04:38.619Z,21.34
2018-08-10T03:05:23.983Z,21.37
2018-08-10T03:06:23.750Z,21.43
2018-08-10T03:07:24.039Z,21.4
2018-08-10T03:08:24.325Z,21.37
2018-08-10T03:09:23.829Z,21.34
2018-08-10T03:10:39.031Z,21.4
2018-08-10T03:11:24.140Z,21.38
2018-08-10T03:12:23.903Z,21.44
2018-08-10T03:13:23.927Z,21.38
2018-08-10T03:14:24.467Z,21.34
2018-08-10T03:15:24.239Z,21.35
2018-08-10T03:17:24.644Z,21.44
2018-08-10T03:18:24.567Z,21.43
2018-08-10T03:19:24.595Z,21.43
2018-08-10T03:20:24.638Z,21.37
2018-08-10T03:21:24.643Z,21.4
2018-08-10T03:22:24.417Z,21.46
2018-08-10T03:23:24.703Z,21.52
2018-08-10T03:24:24.719Z,21.47
2018-08-10T03:26:24.772Z,21.52
2018-08-10T03:27:24.796Z,21.56
2018-08-10T03:28:24.818Z,21.53
2018-08-10T03:29:24.588Z,21.58
2018-08-10T03:30:24.932Z,21.61
2018-08-10T03:31:24.643Z,21.59
2018-08-10T03:32:24.921Z,21.54
2018-08-10T03:33:24.947Z,21.72
2018-08-10T03:34:24.971Z,21.69
2018-08-10T03:35:24.995Z,21.67
2018-08-10T03:36:39.680Z,21.69
2018-08-10T03:37:25.048Z,21.75
2018-08-10T03:38:25.068Z,21.71
2018-08-10T03:39:25.099Z,21.74
2018-08-10T03:40:25.175Z,21.72
2018-08-10T03:41:25.150Z,21.67
2018-08-10T03:42:24.965Z,21.67
2018-08-10T03:43:25.195Z,21.77
2018-08-10T03:44:25.251Z,21.75
2018-08-10T03:45:24.730Z,21.67
2018-08-10T03:46:25.015Z,21.71
2018-08-10T03:47:25.038Z,21.8
2018-08-10T03:48:25.322Z,21.74
2018-08-10T03:49:25.368Z,21.82
2018-08-10T03:50:25.113Z,21.8
2018-08-10T03:51:25.400Z,21.79
2018-08-10T03:52:40.085Z,21.84
2018-08-10T03:53:25.198Z,21.84
2018-08-10T03:54:25.472Z,21.9
2018-08-10T03:55:25.242Z,21.91
2018-08-10T03:56:25.599Z,21.9
2018-08-10T03:57:25.549Z,22.02
2018-08-10T03:58:25.583Z,22
2018-08-10T03:59:25.648Z,21.94
2018-08-10T04:00:25.621Z,21.96
2018-08-10T04:01:25.650Z,21.9
2018-08-10T04:02:40.341Z,21.9
2018-08-10T04:03:25.441Z,21.91
2018-08-10T04:04:25.482Z,21.92
2018-08-10T04:05:25.750Z,21.98
2018-08-10T04:06:25.516Z,21.99
2018-08-10T04:07:25.546Z,21.99
2018-08-10T04:08:40.486Z,22.05
2018-08-10T04:09:25.645Z,22.12
2018-08-10T04:10:25.874Z,21.98
2018-08-10T04:11:25.900Z,22.02
2018-08-10T04:12:25.670Z,22.09
2018-08-10T04:13:25.953Z,22.07
2018-08-10T04:14:25.720Z,22.02
2018-08-10T04:15:25.747Z,22.03
2018-08-10T04:16:26.025Z,22.02
2018-08-10T04:17:26.050Z,22
2018-08-10T04:18:40.481Z,22.06
2018-08-10T04:19:40.507Z,22.06
2018-08-10T04:20:25.611Z,22
2018-08-10T04:21:25.897Z,22.06
2018-08-10T04:22:26.186Z,22
2018-08-10T04:23:25.688Z,22.07
2018-08-10T04:26:26.283Z,22.1
2018-08-10T04:27:26.046Z,22
2018-08-10T04:29:26.451Z,21.98
2018-08-10T04:30:26.381Z,22.07
2018-08-10T04:31:26.409Z,22.09
2018-08-10T04:32:26.433Z,22.12
2018-08-10T04:33:26.503Z,22.1
2018-08-10T04:34:26.222Z,22.12
2018-08-10T04:35:26.505Z,22.12
2018-08-10T04:36:26.530Z,22.07
2018-08-10T04:37:26.300Z,22.12
2018-08-10T04:39:41.272Z,22
2018-08-10T04:40:26.632Z,21.99
2018-08-10T04:41:26.656Z,22.17
2018-08-10T04:43:41.377Z,22.15
2018-08-10T04:44:26.480Z,22.05
2018-08-10T04:45:26.761Z,22.06
2018-08-10T04:46:26.527Z,22.06
2018-08-10T04:47:26.550Z,22.07
2018-08-10T04:48:26.583Z,22.12
2018-08-10T04:49:26.861Z,22.12
2018-08-10T04:50:26.884Z,22.05
2018-08-10T04:51:26.654Z,22.07
2018-08-10T04:52:26.937Z,22.06
2018-08-10T04:53:26.960Z,22.07
2018-08-10T04:54:26.729Z,22
2018-08-10T04:55:27.137Z,22.1
2018-08-10T04:56:26.777Z,22.02
2018-08-10T04:57:26.547Z,22.14
2018-08-10T04:58:26.832Z,22.14
2018-08-10T04:59:27.112Z,21.98
2018-08-10T05:00:27.139Z,22.03
2018-08-10T05:01:26.906Z,22.05
2018-08-10T05:02:27.191Z,21.99
2018-08-10T05:03:26.698Z,22.03
2018-08-10T05:04:27.239Z,22.02
2018-08-10T05:05:27.274Z,21.94
2018-08-10T05:06:41.694Z,22
2018-08-10T05:07:26.800Z,22.02
2018-08-10T05:08:27.343Z,22.02
2018-08-10T05:09:27.378Z,22.05
2018-08-10T05:10:27.133Z,22.09
2018-08-10T05:11:42.079Z,22.02
2018-08-10T05:13:27.206Z,22.06
2018-08-10T05:14:27.497Z,22.05
2018-08-10T05:15:27.517Z,22.2
2018-08-10T05:16:27.559Z,22.15
2018-08-10T05:18:27.620Z,22.18
2018-08-10T05:19:27.358Z,22.24
2018-08-10T05:20:27.639Z,22.17
2018-08-10T05:22:27.691Z,22.21
2018-08-10T05:23:27.716Z,22.2
2018-08-10T05:24:27.759Z,22.22
2018-08-10T05:25:27.766Z,22.21
2018-08-10T05:26:27.794Z,22.18
2018-08-10T05:27:42.480Z,22.21
2018-08-10T05:28:27.846Z,22.24
2018-08-10T05:29:27.612Z,22.25
2018-08-10T05:30:27.901Z,22.22
2018-08-10T05:31:27.920Z,22.18
2018-08-10T05:32:27.947Z,22.15
2018-08-10T05:33:27.972Z,22.15
2018-08-10T05:34:27.744Z,22.07
2018-08-10T05:35:28.025Z,22.05
2018-08-10T05:36:42.708Z,22.06
2018-08-10T05:37:42.732Z,22.1
2018-08-10T05:38:27.843Z,22.12
2018-08-10T05:39:27.867Z,22.07
2018-08-10T05:41:28.168Z,22.12
2018-08-10T05:42:28.197Z,22.06
2018-08-10T05:43:42.883Z,22.2
2018-08-10T05:44:27.989Z,22.17
2018-08-10T05:46:28.558Z,22.18
2018-08-10T05:47:28.326Z,22.25
2018-08-10T05:48:28.092Z,22.25
2018-08-10T05:49:28.114Z,22.15
2018-08-10T05:50:28.474Z,22.15
2018-08-10T05:51:28.423Z,22.06
2018-08-10T05:52:28.529Z,22.24
2018-08-10T05:53:28.482Z,22.12
2018-08-10T05:54:28.239Z,22.25
2018-08-10T05:55:28.532Z,22.22
2018-08-10T05:56:28.547Z,22.33
2018-08-10T05:57:28.702Z,22.33
2018-08-10T05:58:28.345Z,22.35
2018-08-10T05:59:43.287Z,22.31
2018-08-10T06:00:28.654Z,22.37
2018-08-10T06:01:28.683Z,22.33
2018-08-10T06:03:29.311Z,22.25
2018-08-10T06:04:28.788Z,22.18
2018-08-10T06:05:28.776Z,22.24
2018-08-10T06:06:43.464Z,22.27
2018-08-10T06:07:28.582Z,22.27
2018-08-10T06:08:28.855Z,22.35
2018-08-10T06:09:28.618Z,22.39
2018-08-10T06:10:28.904Z,22.4
2018-08-10T06:11:28.928Z,22.57
2018-08-10T06:12:28.951Z,22.64
2018-08-10T06:13:28.979Z,22.7
2018-08-10T06:14:43.665Z,22.8
2018-08-10T06:15:29.215Z,22.86
2018-08-10T06:16:28.540Z,22.72
2018-08-10T06:17:29.103Z,22.65
2018-08-10T06:18:29.107Z,22.72
2018-08-10T06:19:29.384Z,22.58
2018-08-10T06:20:29.160Z,22.58
2018-08-10T06:22:43.887Z,22.42
2018-08-10T06:23:28.980Z,22.36
2018-08-10T06:24:29.002Z,22.36
2018-08-10T06:25:29.289Z,22.31
2018-08-10T06:26:29.308Z,22.3
2018-08-10T06:27:29.331Z,22.21
2018-08-10T06:28:29.360Z,22.28
2018-08-10T06:29:29.396Z,22.15
2018-08-10T06:30:29.422Z,22.17
2018-08-10T06:32:29.468Z,21.99
2018-08-10T06:34:29.526Z,21.83
2018-08-10T06:35:29.289Z,21.82
2018-08-10T06:36:29.567Z,21.69
2018-08-10T06:37:29.587Z,21.71
2018-08-10T06:38:29.611Z,21.69
2018-08-10T06:39:29.642Z,21.61
2018-08-10T06:40:29.667Z,21.54
2018-08-10T06:41:29.690Z,21.56
2018-08-10T06:42:29.716Z,21.64
2018-08-10T06:43:29.479Z,21.58
2018-08-10T06:44:29.516Z,21.62
2018-08-10T06:46:44.222Z,21.56
2018-08-10T06:47:29.843Z,21.65
2018-08-10T06:48:29.607Z,21.62
2018-08-10T06:49:29.634Z,21.67
2018-08-10T06:50:29.919Z,21.58
2018-08-10T06:51:29.950Z,21.46
2018-08-10T06:52:29.972Z,21.5
2018-08-10T06:53:29.992Z,21.49
2018-08-10T06:54:29.761Z,21.32
2018-08-10T06:55:30.045Z,21.34
2018-08-10T06:56:30.070Z,21.44
2018-08-10T06:57:30.105Z,21.5
2018-08-10T06:58:30.132Z,21.46
2018-08-10T07:00:30.017Z,21.47
2018-08-10T07:01:30.372Z,21.34
2018-08-10T07:02:44.879Z,21.32
2018-08-10T07:03:30.249Z,21.34
2018-08-10T07:04:30.271Z,21.44
2018-08-10T07:06:30.319Z,21.35
2018-08-10T07:07:30.521Z,21.47
2018-08-10T07:09:30.391Z,21.38
2018-08-10T07:10:30.419Z,21.37
2018-08-10T07:11:45.105Z,21.47
2018-08-10T07:13:30.875Z,21.61
2018-08-10T07:14:30.518Z,21.54
2018-08-10T07:15:30.544Z,21.47
2018-08-10T07:16:30.570Z,21.43
2018-08-10T07:17:30.593Z,21.37
2018-08-10T07:18:45.279Z,21.34
2018-08-10T07:19:30.649Z,21.38
2018-08-10T07:20:30.665Z,21.49
2018-08-10T07:21:30.707Z,21.5
2018-08-10T07:22:30.461Z,21.62
2018-08-10T07:23:30.741Z,21.61
2018-08-10T07:24:30.517Z,21.62
2018-08-10T07:25:30.800Z,21.74
2018-08-10T07:26:30.559Z,21.69
2018-08-10T07:27:30.846Z,21.61
2018-08-10T07:28:30.869Z,21.71
2018-08-10T07:29:30.906Z,21.69
2018-08-10T07:30:30.404Z,21.79
2018-08-10T07:31:30.689Z,21.98
2018-08-10T07:32:30.710Z,21.88
2018-08-10T07:33:30.993Z,22
2018-08-10T07:34:45.678Z,22.24
2018-08-10T07:35:31.057Z,22.27
2018-08-10T07:37:31.092Z,22.28
2018-08-10T07:38:31.226Z,22.33
2018-08-10T07:39:31.146Z,22.43
2018-08-10T07:40:30.913Z,22.52
2018-08-10T07:41:30.679Z,22.64
2018-08-10T07:42:45.882Z,22.73
2018-08-10T07:43:45.907Z,22.68
2018-08-10T07:44:31.283Z,22.65
2018-08-10T07:45:31.291Z,22.7
2018-08-10T07:46:31.505Z,22.54
2018-08-10T07:47:30.831Z,22.73
2018-08-10T07:48:31.373Z,22.62
2018-08-10T07:49:46.061Z,22.55
2018-08-10T07:50:31.167Z,22.28
2018-08-10T07:51:31.460Z,22.27
2018-08-10T07:53:31.507Z,22.42
2018-08-10T07:54:31.282Z,22.42
2018-08-10T07:55:31.552Z,22.25
2018-08-10T07:56:31.576Z,22.17
2018-08-10T07:57:31.349Z,22.12
2018-08-10T07:58:46.288Z,22.09
2018-08-10T07:59:31.657Z,21.96
2018-08-10T08:00:31.679Z,22.05
2018-08-10T08:01:31.703Z,22.14
2018-08-10T08:02:31.734Z,22.09
2018-08-10T08:03:46.420Z,22.12
2018-08-10T08:04:31.524Z,22.14
2018-08-10T08:05:31.921Z,22.1
2018-08-10T08:06:31.572Z,22.1
2018-08-10T08:07:31.857Z,21.9
2018-08-10T08:08:31.880Z,21.75
2018-08-10T08:09:31.911Z,21.69
2018-08-10T08:10:32.172Z,21.72
2018-08-10T08:11:31.701Z,21.65
2018-08-10T08:12:31.724Z,21.72
2018-08-10T08:13:32.009Z,21.84
2018-08-10T08:14:31.780Z,21.82
2018-08-10T08:15:32.059Z,22.05
2018-08-10T08:16:31.827Z,21.99
2018-08-10T08:17:32.105Z,22
2018-08-10T08:18:31.875Z,22.17
2018-08-10T08:19:32.497Z,22.15
2018-08-10T08:20:32.184Z,22.37
2018-08-10T08:21:46.613Z,22.57
2018-08-10T08:22:31.717Z,22.7
2018-08-10T08:23:32.261Z,22.86
2018-08-10T08:25:32.309Z,23.13
2018-08-10T08:26:32.338Z,23.01
2018-08-10T08:27:32.110Z,23
2018-08-10T08:28:32.393Z,23.04
2018-08-10T08:29:47.073Z,22.94
2018-08-10T08:30:32.435Z,22.94
2018-08-10T08:31:32.468Z,23.09
2018-08-10T08:32:32.231Z,23.01
2018-08-10T08:33:32.519Z,23.12
2018-08-10T08:34:32.658Z,23.16
2018-08-10T08:35:32.571Z,23.12
2018-08-10T08:36:32.595Z,23.15
2018-08-10T08:38:32.599Z,23.27
2018-08-10T08:39:32.667Z,23.48
2018-08-10T08:40:32.692Z,23.54
2018-08-10T08:41:32.462Z,23.55
2018-08-10T08:42:32.488Z,23.6
2018-08-10T08:43:32.780Z,23.48
2018-08-10T08:44:47.461Z,23.65
2018-08-10T08:45:33.223Z,23.78
2018-08-10T08:46:33.358Z,23.79
2018-08-10T08:47:32.875Z,23.66
2018-08-10T08:48:32.903Z,23.79
2018-08-10T08:49:32.927Z,23.7
2018-08-10T08:50:32.437Z,23.53
2018-08-10T08:51:32.723Z,23.83
2018-08-10T08:52:33.019Z,24
2018-08-10T08:55:33.085Z,24.12
2018-08-10T08:57:33.136Z,24.37
2018-08-10T08:58:32.904Z,24.57
2018-08-10T08:59:33.196Z,24.76
2018-08-10T09:00:33.230Z,25
2018-08-10T09:01:33.265Z,24.96
2018-08-10T09:02:33.024Z,24.83
2018-08-10T09:03:33.302Z,24.99
2018-08-10T09:04:33.323Z,25.06
2018-08-10T09:05:33.349Z,25.06
2018-08-10T09:06:33.378Z,24.9
2018-08-10T09:07:33.774Z,24.53
2018-08-10T09:08:33.429Z,24.6
2018-08-10T09:09:48.119Z,24.57
2018-08-10T09:10:32.967Z,24.37
2018-08-10T09:12:33.542Z,24.1
2018-08-10T09:13:33.047Z,24.16
2018-08-10T09:14:33.899Z,24.42
2018-08-10T09:15:33.361Z,24.12
2018-08-10T09:16:33.645Z,23.88
2018-08-10T09:17:33.664Z,23.87
2018-08-10T09:18:33.693Z,23.72
2018-08-10T09:19:33.204Z,23.78
2018-08-10T09:20:33.750Z,23.91
2018-08-10T09:21:33.774Z,24.13
2018-08-10T09:22:33.800Z,24.12
2018-08-10T09:23:33.570Z,24.09
2018-08-10T09:24:48.542Z,24.18
2018-08-10T09:25:33.890Z,24.1
2018-08-10T09:26:33.652Z,23.97
2018-08-10T09:27:33.933Z,23.97
2018-08-10T09:28:33.703Z,23.83
2018-08-10T09:29:33.738Z,23.7
2018-08-10T09:30:34.011Z,23.65
2018-08-10T09:31:33.784Z,23.55
2018-08-10T09:32:33.813Z,23.65
2018-08-10T09:33:48.751Z,23.68
2018-08-10T09:34:34.360Z,23.91
2018-08-10T09:35:34.143Z,23.84
2018-08-10T09:36:34.179Z,23.91
2018-08-10T09:37:34.198Z,24.03
2018-08-10T09:38:34.055Z,24.1
2018-08-10T09:40:34.279Z,24.15
2018-08-10T09:41:34.042Z,24.18
2018-08-10T09:42:34.065Z,24.18
2018-08-10T09:43:34.352Z,23.97
2018-08-10T09:44:34.380Z,24.02
2018-08-10T09:45:34.669Z,23.9
2018-08-10T09:46:34.172Z,24.09
2018-08-10T09:47:34.459Z,24.13
2018-08-10T09:48:34.484Z,24.34
2018-08-10T09:49:34.325Z,24.43
2018-08-10T09:50:34.535Z,24.61
2018-08-10T09:51:34.302Z,25.02
2018-08-10T09:52:34.588Z,25.47
2018-08-10T09:53:34.614Z,25.67
2018-08-10T09:54:34.382Z,25.7
2018-08-10T09:55:34.710Z,25.32
2018-08-10T09:56:49.354Z,25.27
2018-08-10T09:57:34.463Z,25.39
2018-08-10T09:58:34.753Z,25.46
2018-08-10T09:59:34.783Z,25.55
2018-08-10T10:00:34.556Z,25.51
2018-08-10T10:01:34.573Z,25.32
2018-08-10T10:02:34.596Z,25.39
2018-08-10T10:03:34.884Z,25.28
2018-08-10T10:04:34.651Z,25.38
2018-08-10T10:05:34.682Z,25.17
2018-08-10T10:06:49.624Z,24.98
2018-08-10T10:07:34.730Z,25.17
2018-08-10T10:08:35.018Z,25.32
2018-08-10T10:09:34.786Z,25.28
2018-08-10T10:10:35.072Z,25.42
2018-08-10T10:11:34.839Z,25.38
2018-08-10T10:12:49.786Z,25.32
2018-08-10T10:13:35.155Z,25.25
2018-08-10T10:15:34.944Z,25.45
2018-08-10T10:16:34.970Z,25.47
2018-08-10T10:17:35.119Z,25.72
2018-08-10T10:18:35.026Z,25.75
2018-08-10T10:19:35.317Z,25.61
2018-08-10T10:21:50.030Z,25.47
2018-08-10T10:22:49.798Z,25.7
2018-08-10T10:23:35.263Z,25.94
2018-08-10T10:24:35.197Z,26.23
2018-08-10T10:25:35.499Z,26.3
2018-08-10T10:26:35.250Z,26.15
2018-08-10T10:27:35.532Z,25.99
2018-08-10T10:28:50.215Z,26.02
2018-08-10T10:29:35.325Z,26.1
2018-08-10T10:30:35.610Z,26.17
2018-08-10T10:31:35.637Z,25.57
2018-08-10T10:32:35.490Z,25.33
2018-08-10T10:33:35.691Z,25.38
2018-08-10T10:34:35.462Z,25.55
2018-08-10T10:35:35.488Z,25.3
2018-08-10T10:36:50.436Z,25.17
2018-08-10T10:37:35.286Z,25.27
2018-08-10T10:38:35.834Z,25.39
2018-08-10T10:39:35.599Z,25.57
2018-08-10T10:40:35.882Z,25.94
2018-08-10T10:41:36.174Z,25.6
2018-08-10T10:42:35.937Z,25.55
2018-08-10T10:43:35.977Z,25.77
2018-08-10T10:44:50.651Z,25.85
2018-08-10T10:45:35.762Z,25.91
2018-08-10T10:46:35.786Z,25.77
2018-08-10T10:47:36.073Z,25.7
2018-08-10T10:48:36.103Z,25.58
2018-08-10T10:49:35.873Z,25.69
2018-08-10T10:50:36.154Z,25.69
2018-08-10T10:51:35.664Z,25.45
2018-08-10T10:52:35.948Z,25.35
2018-08-10T10:53:36.238Z,25.28
2018-08-10T10:54:36.262Z,25.3
2018-08-10T10:55:36.661Z,25.4
2018-08-10T10:56:51.219Z,25.4
2018-08-10T10:57:36.350Z,25.28
2018-08-10T10:58:36.371Z,25.33
2018-08-10T10:59:51.064Z,25.5
2018-08-10T11:00:36.173Z,25.52
2018-08-10T11:01:36.464Z,25.4
2018-08-10T11:02:36.220Z,25.39
2018-08-10T11:03:36.505Z,25.36
2018-08-10T11:04:36.275Z,25.45
2018-08-10T11:05:36.301Z,25.45
2018-08-10T11:06:51.251Z,25.38
2018-08-10T11:07:36.368Z,25.36
2018-08-10T11:08:36.638Z,25.36
2018-08-10T11:09:36.667Z,25.28
2018-08-10T11:10:36.694Z,25.33
2018-08-10T11:11:36.722Z,25.45
2018-08-10T11:12:36.491Z,25.43
2018-08-10T11:13:36.519Z,25.43
2018-08-10T11:14:36.801Z,25.32
2018-08-10T11:15:36.575Z,25.33
2018-08-10T11:16:36.854Z,25.2
2018-08-10T11:17:36.880Z,25.39
2018-08-10T11:18:36.910Z,25.39
2018-08-10T11:19:36.937Z,25.6
2018-08-10T11:20:36.965Z,25.7
2018-08-10T11:21:36.993Z,25.76
2018-08-10T11:22:36.800Z,25.76
2018-08-10T11:23:51.723Z,25.8
2018-08-10T11:24:37.071Z,25.85
2018-08-10T11:25:37.457Z,25.72
2018-08-10T11:27:37.162Z,26.05
2018-08-10T11:28:37.178Z,26.01
2018-08-10T11:29:37.209Z,26.29
2018-08-10T11:30:37.233Z,26.45
2018-08-10T11:31:51.941Z,26.82
2018-08-10T11:33:37.316Z,26.7
2018-08-10T11:34:37.349Z,27.1
2018-08-10T11:35:37.375Z,27.17
2018-08-10T11:36:37.400Z,27.41
2018-08-10T11:37:52.092Z,27.4
2018-08-10T11:38:37.454Z,27.41
2018-08-10T11:39:37.479Z,27.62
2018-08-10T11:40:52.171Z,27.67
2018-08-10T11:41:37.542Z,27.75
2018-08-10T11:42:37.311Z,27.67
2018-08-10T11:44:37.411Z,27.82
2018-08-10T11:45:37.388Z,28.06
2018-08-10T11:46:37.675Z,27.87
2018-08-10T11:47:52.108Z,27.74
2018-08-10T11:48:37.729Z,27.67
2018-08-10T11:49:37.763Z,27.82
2018-08-10T11:50:37.787Z,27.9
2018-08-10T11:51:37.817Z,27.97
2018-08-10T11:52:37.676Z,28.07
2018-08-10T11:53:37.926Z,28.09
2018-08-10T11:54:37.902Z,28.03
2018-08-10T11:55:37.679Z,27.85
2018-08-10T11:56:37.955Z,27.46
2018-08-10T11:57:37.839Z,27.4
2018-08-10T11:58:38.016Z,27.31
2018-08-10T11:59:38.046Z,27.41
2018-08-10T12:00:38.069Z,27.4
2018-08-10T12:01:37.838Z,27.34
2018-08-10T12:02:37.873Z,27.34
2018-08-10T12:03:52.818Z,27.25
2018-08-10T12:04:37.917Z,27.31
2018-08-10T12:05:37.948Z,27.13
2018-08-10T12:06:37.978Z,27.24
2018-08-10T12:07:38.003Z,27.34
2018-08-10T12:08:38.036Z,27.09
2018-08-10T12:09:37.804Z,26.94
2018-08-10T12:10:37.834Z,27.17
2018-08-10T12:11:38.124Z,27.4
2018-08-10T12:12:38.866Z,27.67
2018-08-10T12:13:52.837Z,27.65
2018-08-10T12:14:53.118Z,27.55
2018-08-10T12:15:38.496Z,27.22
2018-08-10T12:16:38.043Z,27.25
2018-08-10T12:17:38.540Z,27.31
2018-08-10T12:19:53.267Z,27.46
2018-08-10T12:20:38.629Z,27.13
2018-08-10T12:21:38.653Z,27.12
2018-08-10T12:22:38.422Z,27.06
2018-08-10T12:23:38.708Z,26.54
2018-08-10T12:24:38.818Z,26.85
2018-08-10T12:25:38.767Z,27.14
2018-08-10T12:26:38.533Z,27.19
2018-08-10T12:27:38.567Z,27.1
2018-08-10T12:28:53.508Z,26.89
2018-08-10T12:29:38.615Z,26.87
2018-08-10T12:30:38.901Z,26.72
2018-08-10T12:31:38.931Z,26.7
2018-08-10T12:32:38.956Z,26.94
2018-08-10T12:33:38.727Z,26.99
2018-08-10T12:34:53.673Z,26.85
2018-08-10T12:35:39.036Z,27.09
2018-08-10T12:36:39.068Z,26.87
2018-08-10T12:37:38.847Z,26.8
2018-08-10T12:38:39.122Z,26.7
2018-08-10T12:39:39.148Z,26.77
2018-08-10T12:40:39.176Z,26.66
2018-08-10T12:41:39.204Z,26.52
2018-08-10T12:42:39.234Z,26.66
2018-08-10T12:43:39.263Z,26.82
2018-08-10T12:44:39.030Z,26.87
2018-08-10T12:45:39.314Z,27.1
2018-08-10T12:46:39.352Z,27.21
2018-08-10T12:47:39.111Z,27.1
2018-08-10T12:48:39.398Z,27.06
2018-08-10T12:49:39.423Z,26.94
2018-08-10T12:50:39.889Z,26.97
2018-08-10T12:51:39.220Z,26.89
2018-08-10T12:53:39.275Z,26.94
2018-08-10T12:54:39.572Z,27.03
2018-08-10T12:55:39.599Z,26.54
2018-08-10T12:56:39.617Z,26.44
2018-08-10T12:57:39.651Z,26.26
2018-08-10T12:58:39.413Z,26.35
2018-08-10T12:59:39.705Z,26.29
2018-08-10T13:00:39.732Z,25.95
2018-08-10T13:01:39.762Z,25.85
2018-08-10T13:02:39.297Z,25.95
2018-08-10T13:03:39.553Z,25.99
2018-08-10T13:05:39.861Z,25.73
2018-08-10T13:06:54.555Z,26.28
2018-08-10T13:07:39.924Z,26.33
2018-08-10T13:08:39.693Z,26.44
2018-08-10T13:10:40.210Z,26.55
2018-08-10T13:11:39.774Z,26.73
2018-08-10T13:12:39.802Z,26.75
2018-08-10T13:13:40.082Z,26.81
2018-08-10T13:14:40.118Z,26.72
2018-08-10T13:15:54.801Z,26.8
2018-08-10T13:16:40.164Z,26.82
2018-08-10T13:17:40.035Z,26.65
2018-08-10T13:18:40.192Z,26.77
2018-08-10T13:19:40.249Z,26.94
2018-08-10T13:20:40.025Z,27.04
2018-08-10T13:21:40.308Z,26.95
2018-08-10T13:22:54.996Z,26.65
2018-08-10T13:24:40.128Z,26.43
2018-08-10T13:25:40.155Z,26.06
2018-08-10T13:26:40.444Z,26.32
2018-08-10T13:27:40.214Z,26.2
2018-08-10T13:28:40.240Z,26.15
2018-08-10T13:29:40.264Z,26.2
2018-08-10T13:30:40.296Z,26.32
2018-08-10T13:31:40.317Z,26.43
2018-08-10T13:32:40.406Z,26.45
2018-08-10T13:33:40.377Z,26.55
2018-08-10T13:34:40.150Z,26.67
2018-08-10T13:35:40.923Z,26.66
2018-08-10T13:36:40.721Z,26.69
2018-08-10T13:37:40.741Z,26.75
2018-08-10T13:38:55.436Z,26.58
2018-08-10T13:39:40.803Z,26.54
2018-08-10T13:40:40.832Z,26.3
2018-08-10T13:41:40.597Z,26.43
2018-08-10T13:42:40.623Z,26.52
2018-08-10T13:43:40.818Z,26.82